Hlavní strana
METAR-TAF:

METAR-TAF

Letiště :

Nueva Loja, Ekvádor

zeměpisná šířka: 00-05-33N, zeměpisná délka: 076-52-10W, výška: 299 m

Aktuální stav počasí

Zpráva byla vytvořena před 10 hodinami a 20 minutami, v 23:00 UTC
Východní vítr 3 kt
Teplota 27°C
Vlhkost vzduchu 84%
Tlak 1013 hPa
Viditelnost 10 km a více
Žádná oblačnost pod 1500 m, nevyskytují se cumulonimby.

METAR: SENL 292300Z 10003KT CAVOK 27/24 Q1013 RMK A2992

Čas: 04:20 (09:20 UTC)


TAF: chybějící

Stav a předpovědi počasí z více než 4 000 letišť (zprávy METAR a TAF).

Červené a žluté tečky na mapě představují dostupné meteorologické stanice.

Když kurzor umístíte na tečku, zobrazí se název stanice.

Pak kliknutím zobrazíte stav a předpověď počasí.

Chcete-li změnit mapu, kliknutím na zelené tlačítko se znaménkem +mapu přiblížíte, kliknutím na zelené tlačítko se znaménkem – mapu oddálíte a kliknutím na zelené šipky přejdete na sousední mapy.


METAR-TAF: